Time;durP1;ratioP1;P1;durP2;ratioP2;P2;SDS_P1;SDS_P2;PMS_P1;PMS_P2;Temp;Humidity;BMP_temperature;BMP_pressure;BME280_temperature;BME280_humidity;BME280_pressure;Samples;Min_cycle;Max_cycle;Signal;HPM_P1;HPM_P2
2021/08/16 00:00:46;;;;;;;6.55;2.80;;;19.70;89.70;;;;;;5024754;28;20021;-68
2021/08/16 00:03:12;;;;;;;7.70;3.17;;;19.70;89.70;;;;;;5058823;28;20036;-68
2021/08/16 00:05:38;;;;;;;4.90;2.63;;;19.70;90.00;;;;;;5041021;28;20112;-68
2021/08/16 00:08:09;;;;;;;4.93;2.97;;;19.70;90.00;;;;;;5059376;28;20025;-69
2021/08/16 00:10:35;;;;;;;5.95;3.10;;;19.70;90.10;;;;;;5059294;28;20568;-68
2021/08/16 00:13:01;;;;;;;5.93;2.90;;;19.60;90.10;;;;;;5058478;28;20033;-68
2021/08/16 00:15:26;;;;;;;5.20;2.70;;;19.60;90.10;;;;;;5058967;28;20033;-68
2021/08/16 00:17:52;;;;;;;5.43;2.85;;;19.60;90.10;;;;;;5058741;28;20109;-68
2021/08/16 00:20:18;;;;;;;5.90;3.08;;;19.60;90.10;;;;;;5058620;28;20539;-68
2021/08/16 00:22:44;;;;;;;7.35;3.25;;;19.60;90.20;;;;;;5056904;28;20028;-69
2021/08/16 00:25:09;;;;;;;9.15;3.22;;;19.50;90.20;;;;;;5062627;28;20335;-68
2021/08/16 00:27:35;;;;;;;8.77;3.25;;;19.50;90.20;;;;;;5026583;28;20057;-67
2021/08/16 00:30:03;;;;;;;8.30;3.28;;;19.40;90.30;;;;;;5057874;28;20036;-68
2021/08/16 00:32:29;;;;;;;6.80;2.92;;;19.50;90.50;;;;;;5041879;28;20033;-68
2021/08/16 00:34:55;;;;;;;10.15;3.10;;;19.50;90.80;;;;;;5058844;28;20079;-68
2021/08/16 00:37:21;;;;;;;6.18;2.75;;;19.50;90.50;;;;;;5039537;28;20036;-68
2021/08/16 00:39:46;;;;;;;6.90;2.88;;;19.50;90.60;;;;;;5059004;28;20086;-68
2021/08/16 00:42:12;;;;;;;5.53;2.95;;;19.40;90.60;;;;;;5039598;28;20078;-68
2021/08/16 00:44:40;;;;;;;5.80;2.70;;;19.50;90.50;;;;;;5059960;28;20032;-68
2021/08/16 00:47:06;;;;;;;6.60;3.03;;;19.40;90.50;;;;;;5040083;28;20044;-68
2021/08/16 00:49:32;;;;;;;6.53;3.08;;;19.40;90.50;;;;;;5063421;28;20139;-68
2021/08/16 00:51:58;;;;;;;5.63;3.13;;;19.40;90.70;;;;;;5058024;28;20104;-69
2021/08/16 00:54:24;;;;;;;6.47;2.63;;;19.40;90.80;;;;;;5056717;28;20455;-69
2021/08/16 00:56:50;;;;;;;7.32;3.22;;;19.30;90.90;;;;;;5041231;28;20039;-68
2021/08/16 00:59:18;;;;;;;5.47;3.10;;;19.30;90.90;;;;;;5059784;28;20074;-69
2021/08/16 01:01:44;;;;;;;6.15;2.75;;;19.20;90.90;;;;;;5057257;28;20035;-69
2021/08/16 01:04:10;;;;;;;6.20;3.42;;;19.20;91.00;;;;;;5059093;28;20426;-68
2021/08/16 01:06:35;;;;;;;5.63;3.35;;;19.30;91.00;;;;;;5060625;28;20039;-68
2021/08/16 01:09:02;;;;;;;6.72;2.72;;;19.20;91.00;;;;;;5059620;28;20027;-69
2021/08/16 01:11:27;;;;;;;7.30;2.63;;;19.20;91.10;;;;;;5054152;28;20100;-69
2021/08/16 01:13:53;;;;;;;4.90;2.70;;;19.20;91.10;;;;;;5057806;28;20522;-69
2021/08/16 01:16:20;;;;;;;6.50;2.75;;;19.20;91.10;;;;;;5041884;28;20036;-69
2021/08/16 01:18:46;;;;;;;6.60;3.30;;;19.10;91.20;;;;;;5040824;28;20036;-68
2021/08/16 01:21:15;;;;;;;7.55;2.97;;;19.10;91.40;;;;;;5059837;28;20491;-68
2021/08/16 01:23:42;;;;;;;5.05;2.90;;;19.10;91.40;;;;;;5055249;28;20025;-69
2021/08/16 01:26:08;;;;;;;6.28;3.35;;;19.10;91.30;;;;;;5058831;28;20047;-68
2021/08/16 01:28:34;;;;;;;5.40;3.22;;;19.00;91.30;;;;;;5038997;28;20513;-68
2021/08/16 01:31:03;;;;;;;7.97;3.40;;;19.00;91.30;;;;;;5056805;28;20033;-69
2021/08/16 01:33:30;;;;;;;5.32;3.15;;;19.00;91.50;;;;;;5058204;28;20021;-68
2021/08/16 01:35:56;;;;;;;5.85;3.05;;;19.00;91.50;;;;;;5038933;28;20029;-69
2021/08/16 01:38:26;;;;;;;8.80;3.30;;;18.90;91.60;;;;;;5041650;28;20032;-69
2021/08/16 01:40:52;;;;;;;7.65;2.92;;;18.90;91.50;;;;;;5058922;28;20105;-68
2021/08/16 01:43:18;;;;;;;7.00;3.20;;;18.80;91.60;;;;;;5058946;28;20025;-67
2021/08/16 01:45:44;;;;;;;8.27;3.78;;;18.80;91.70;;;;;;5054817;28;20041;-69
2021/08/16 01:48:13;;;;;;;8.00;3.15;;;18.80;91.70;;;;;;5053731;28;20052;-68
2021/08/16 01:50:38;;;;;;;5.97;3.28;;;18.80;91.80;;;;;;5056750;28;20531;-69
2021/08/16 01:53:04;;;;;;;5.60;2.88;;;18.80;91.80;;;;;;5055579;28;20037;-69
2021/08/16 01:55:30;;;;;;;6.40;3.20;;;18.80;91.80;;;;;;5056246;28;20100;-68
2021/08/16 01:57:55;;;;;;;7.32;3.03;;;18.70;91.90;;;;;;5040213;28;20128;-68
2021/08/16 02:00:21;;;;;;;8.45;3.40;;;18.70;91.90;;;;;;5059869;28;20094;-69
2021/08/16 02:02:47;;;;;;;12.07;3.90;;;18.60;91.90;;;;;;5040525;28;20114;-68
2021/08/16 02:05:13;;;;;;;6.78;3.40;;;18.60;92.00;;;;;;5057583;28;20033;-68
2021/08/16 02:07:38;;;;;;;7.82;3.75;;;18.60;92.10;;;;;;5055930;28;20049;-69
2021/08/16 02:10:05;;;;;;;6.00;3.30;;;18.50;92.10;;;;;;5056709;28;20064;-69
2021/08/16 02:12:31;;;;;;;9.70;3.78;;;18.50;92.40;;;;;;5057494;28;20039;-68
2021/08/16 02:14:56;;;;;;;7.85;3.10;;;18.50;92.30;;;;;;5058334;28;20029;-68
2021/08/16 02:17:22;;;;;;;8.07;3.58;;;18.40;92.30;;;;;;5059607;28;20025;-69
2021/08/16 02:19:48;;;;;;;9.50;4.28;;;18.40;92.40;;;;;;5057991;28;20359;-67
2021/08/16 02:22:17;;;;;;;8.27;3.42;;;18.40;92.70;;;;;;5057730;28;20033;-69
2021/08/16 02:24:43;;;;;;;7.53;4.13;;;18.30;92.60;;;;;;5051860;28;20068;-68
2021/08/16 02:27:10;;;;;;;8.00;4.18;;;18.30;92.90;;;;;;5057822;28;20048;-68
2021/08/16 02:29:35;;;;;;;7.30;3.20;;;18.30;93.00;;;;;;5057508;28;20083;-69
2021/08/16 02:32:02;;;;;;;7.93;3.70;;;18.30;92.90;;;;;;5056511;28;20028;-68
2021/08/16 02:34:27;;;;;;;6.95;4.00;;;18.20;93.00;;;;;;5056482;28;20074;-68
2021/08/16 02:36:54;;;;;;;7.93;4.00;;;18.30;93.10;;;;;;5057451;28;20060;-69
2021/08/16 02:39:20;;;;;;;6.72;3.35;;;18.20;93.00;;;;;;5055920;28;20078;-69
2021/08/16 02:41:46;;;;;;;8.00;4.10;;;18.20;93.20;;;;;;5056662;28;20037;-69
2021/08/16 02:44:11;;;;;;;7.70;3.92;;;18.20;93.20;;;;;;5058810;28;20483;-69
2021/08/16 02:46:37;;;;;;;5.93;3.60;;;18.20;93.20;;;;;;5061356;28;20107;-68
2021/08/16 02:49:03;;;;;;;9.32;4.35;;;18.20;93.10;;;;;;5060811;28;20033;-68
2021/08/16 02:51:29;;;;;;;9.52;5.18;;;18.20;93.20;;;;;;5059625;28;20025;-68
2021/08/16 02:53:55;;;;;;;9.43;4.75;;;18.20;93.40;;;;;;5062008;28;20025;-68
2021/08/16 02:56:21;;;;;;;11.52;4.10;;;18.10;93.40;;;;;;5044986;28;20032;-68
2021/08/16 02:58:47;;;;;;;10.18;4.15;;;18.10;93.60;;;;;;5042391;28;20047;-68
2021/08/16 03:01:13;;;;;;;7.68;4.25;;;18.10;93.50;;;;;;5061616;28;20575;-68
2021/08/16 03:03:39;;;;;;;7.35;3.75;;;18.10;93.50;;;;;;5060676;28;20403;-67
2021/08/16 03:06:05;;;;;;;8.10;4.65;;;18.20;93.60;;;;;;5061532;28;20063;-69
2021/08/16 03:08:34;;;;;;;10.60;5.00;;;18.20;93.50;;;;;;5061083;28;20020;-69
2021/08/16 03:11:01;;;;;;;9.18;4.30;;;18.20;93.40;;;;;;5059086;28;20415;-68
2021/08/16 03:13:27;;;;;;;9.55;4.13;;;18.30;93.30;;;;;;5042598;28;20027;-69
2021/08/16 03:15:52;;;;;;;13.23;5.13;;;18.20;93.30;;;;;;5059498;28;20029;-68
2021/08/16 03:18:18;;;;;;;7.60;5.13;;;18.30;93.40;;;;;;5043756;28;20036;-69
2021/08/16 03:20:44;;;;;;;8.70;5.10;;;18.30;93.40;;;;;;5059814;28;21042;-68
2021/08/16 03:23:09;;;;;;;12.70;5.60;;;18.30;93.40;;;;;;5059490;28;20457;-68
2021/08/16 03:25:35;;;;;;;14.05;5.40;;;18.30;93.50;;;;;;5061213;28;20067;-68
2021/08/16 03:28:01;;;;;;;7.88;5.32;;;18.30;93.60;;;;;;5041528;28;20438;-69
2021/08/16 03:30:27;;;;;;;11.23;5.13;;;18.30;93.70;;;;;;5060003;28;20044;-68
2021/08/16 03:32:52;;;;;;;10.98;5.57;;;18.20;93.70;;;;;;5059583;28;20028;-69
2021/08/16 03:35:18;;;;;;;10.10;5.60;;;18.10;93.90;;;;;;5041584;28;20085;-67
2021/08/16 03:37:46;;;;;;;8.63;5.28;;;18.10;93.90;;;;;;5059702;28;20072;-69
2021/08/16 03:40:12;;;;;;;12.15;5.72;;;18.20;93.80;;;;;;5058039;28;20028;-68
2021/08/16 03:42:38;;;;;;;9.43;4.88;;;18.20;93.80;;;;;;5041466;28;20029;-69
2021/08/16 03:45:09;;;;;;;9.98;4.82;;;18.20;93.90;;;;;;5059674;28;20254;-68
2021/08/16 03:47:35;;;;;;;10.00;5.25;;;18.10;93.90;;;;;;5042857;28;20089;-68
2021/08/16 03:50:00;;;;;;;7.88;4.72;;;18.20;93.90;;;;;;5040113;28;20103;-68
2021/08/16 03:52:26;;;;;;;10.30;5.43;;;18.20;93.90;;;;;;5060366;28;20056;-68
2021/08/16 03:54:52;;;;;;;11.20;5.22;;;18.20;93.90;;;;;;5061731;28;20025;-68
2021/08/16 03:57:17;;;;;;;13.93;5.15;;;18.20;93.80;;;;;;5057592;28;20032;-69
2021/08/16 03:59:43;;;;;;;9.23;4.65;;;18.20;93.90;;;;;;5043168;28;20032;-69
2021/08/16 04:02:09;;;;;;;12.00;5.25;;;18.20;93.90;;;;;;5059680;28;20119;-68
2021/08/16 04:04:34;;;;;;;11.18;5.38;;;18.20;94.00;;;;;;5058553;28;20037;-68
2021/08/16 04:07:00;;;;;;;10.40;5.13;;;18.10;94.00;;;;;;5061225;28;20037;-69
2021/08/16 04:09:26;;;;;;;8.70;4.28;;;18.10;93.90;;;;;;5058633;28;20029;-68
2021/08/16 04:11:51;;;;;;;11.05;5.40;;;18.20;93.90;;;;;;5060935;28;20060;-69
2021/08/16 04:14:17;;;;;;;9.63;5.63;;;18.10;94.00;;;;;;5057370;28;20029;-69
2021/08/16 04:16:44;;;;;;;15.27;6.40;;;18.10;94.00;;;;;;5057429;28;20041;-68
2021/08/16 04:19:10;;;;;;;17.33;6.45;;;18.20;94.00;;;;;;5040996;28;20043;-68
2021/08/16 04:21:35;;;;;;;13.77;5.93;;;18.10;94.10;;;;;;5059400;28;20028;-68
2021/08/16 04:24:01;;;;;;;13.57;6.95;;;18.10;94.30;;;;;;5058146;28;20017;-68
2021/08/16 04:26:27;;;;;;;12.35;5.70;;;18.10;94.40;;;;;;5058341;28;20052;-69
2021/08/16 04:28:52;;;;;;;13.10;6.13;;;18.10;94.40;;;;;;5060626;28;20036;-69
2021/08/16 04:31:18;;;;;;;11.52;6.65;;;18.10;94.50;;;;;;5056944;28;20036;-68
2021/08/16 04:33:44;;;;;;;11.93;6.38;;;18.10;94.60;;;;;;5058546;28;20037;-68
2021/08/16 04:36:09;;;;;;;10.88;6.07;;;18.10;94.60;;;;;;5058565;28;20032;-68
2021/08/16 04:38:35;;;;;;;11.32;6.22;;;18.20;94.50;;;;;;5059336;28;20039;-68
2021/08/16 04:41:03;;;;;;;14.18;6.60;;;18.10;94.50;;;;;;5059068;28;20033;-68
2021/08/16 04:43:29;;;;;;;12.45;6.35;;;18.10;94.60;;;;;;5056435;28;20031;-69
2021/08/16 04:45:55;;;;;;;11.80;6.57;;;18.20;94.60;;;;;;5055949;28;20033;-66
2021/08/16 04:48:20;;;;;;;21.50;7.30;;;18.20;94.50;;;;;;5040574;28;20098;-66
2021/08/16 04:50:46;;;;;;;11.02;5.93;;;18.20;94.70;;;;;;5040466;28;20021;-66
2021/08/16 04:53:12;;;;;;;11.05;5.95;;;18.20;94.60;;;;;;5056505;28;20534;-66
2021/08/16 04:55:38;;;;;;;15.23;6.50;;;18.20;94.60;;;;;;5040012;28;20021;-65
2021/08/16 04:58:03;;;;;;;15.98;6.30;;;18.20;94.60;;;;;;5038551;28;20487;-66
2021/08/16 05:00:29;;;;;;;13.35;6.57;;;18.20;94.70;;;;;;5057357;28;20503;-66
2021/08/16 05:02:56;;;;;;;12.50;7.10;;;18.20;94.40;;;;;;5058764;28;20490;-66
2021/08/16 05:05:26;;;;;;;10.38;5.47;;;18.20;94.50;;;;;;5038048;28;20040;-67
2021/08/16 05:07:53;;;;;;;14.80;6.75;;;18.20;94.40;;;;;;5038323;28;20021;-67
2021/08/16 05:10:20;;;;;;;14.23;6.10;;;18.20;94.50;;;;;;5057770;28;20509;-66
2021/08/16 05:12:47;;;;;;;16.55;7.55;;;18.30;94.40;;;;;;5051832;28;20111;-67
2021/08/16 05:15:13;;;;;;;14.95;6.80;;;18.30;94.40;;;;;;5055356;28;20026;-65
2021/08/16 05:17:39;;;;;;;11.48;6.60;;;18.30;94.40;;;;;;5057692;28;20043;-66
2021/08/16 05:20:07;;;;;;;14.07;7.07;;;18.30;94.30;;;;;;5057003;28;20370;-67
2021/08/16 05:22:33;;;;;;;21.80;8.48;;;18.30;94.30;;;;;;5040564;28;20037;-66
2021/08/16 05:24:59;;;;;;;15.30;8.00;;;18.30;94.30;;;;;;5057936;28;20039;-67
2021/08/16 05:27:25;;;;;;;18.25;8.80;;;18.30;94.30;;;;;;5054413;28;20036;-67
2021/08/16 05:29:50;;;;;;;15.00;7.30;;;18.30;94.30;;;;;;5055275;28;20560;-68
2021/08/16 05:32:17;;;;;;;23.48;7.32;;;18.30;94.40;;;;;;5056775;28;20032;-70
2021/08/16 05:34:43;;;;;;;14.98;8.57;;;18.30;94.40;;;;;;5057483;28;20040;-69
2021/08/16 05:37:09;;;;;;;16.15;6.88;;;18.30;94.40;;;;;;5037161;28;20490;-69
2021/08/16 05:39:35;;;;;;;20.30;7.80;;;18.30;94.40;;;;;;5056101;28;20046;-69
2021/08/16 05:42:02;;;;;;;12.77;7.80;;;18.30;94.40;;;;;;5057537;28;20021;-68
2021/08/16 05:44:31;;;;;;;14.52;7.22;;;18.30;94.40;;;;;;5057263;28;20029;-69
2021/08/16 05:46:57;;;;;;;13.55;7.07;;;18.30;94.30;;;;;;5057416;28;20159;-69
2021/08/16 05:49:22;;;;;;;14.60;7.90;;;18.40;94.30;;;;;;5055394;28;20082;-68
2021/08/16 05:51:48;;;;;;;13.63;7.65;;;18.40;94.20;;;;;;5037629;28;20021;-69
2021/08/16 05:54:14;;;;;;;17.73;7.05;;;18.40;94.20;;;;;;5037797;28;20029;-69
2021/08/16 05:56:39;;;;;;;14.00;7.25;;;18.50;94.20;;;;;;5038954;28;20029;-68
2021/08/16 05:59:05;;;;;;;12.52;6.97;;;18.40;94.20;;;;;;5057636;28;20064;-68
2021/08/16 06:01:38;;;;;;;13.73;7.68;;;18.50;94.20;;;;;;5056675;28;20051;-68
2021/08/16 06:04:05;;;;;;;12.82;6.25;;;18.40;94.10;;;;;;5056213;28;20028;-68
2021/08/16 06:06:31;;;;;;;17.85;8.13;;;18.50;94.20;;;;;;5053623;28;20074;-68
2021/08/16 06:08:58;;;;;;;12.40;7.07;;;18.50;94.20;;;;;;5057158;28;20029;-68
2021/08/16 06:11:33;;;;;;;13.68;7.65;;;18.50;94.20;;;;;;5055035;28;20360;-67
2021/08/16 06:13:59;;;;;;;12.75;6.63;;;18.50;94.10;;;;;;5041157;28;20057;-68
2021/08/16 06:16:25;;;;;;;13.57;7.75;;;18.50;94.00;;;;;;5056742;28;20484;-66
2021/08/16 06:18:51;;;;;;;11.23;6.45;;;18.50;94.10;;;;;;5055855;28;20024;-66
2021/08/16 06:21:18;;;;;;;16.35;8.20;;;18.50;94.10;;;;;;5059475;28;20079;-67
2021/08/16 06:23:43;;;;;;;14.07;7.40;;;18.50;94.00;;;;;;5042181;28;20060;-66
2021/08/16 06:26:09;;;;;;;15.85;8.48;;;18.50;94.00;;;;;;5042810;28;20430;-67
2021/08/16 06:28:36;;;;;;;17.08;7.63;;;18.60;94.00;;;;;;5059186;28;20095;-66
2021/08/16 06:31:02;;;;;;;13.20;7.13;;;18.60;94.10;;;;;;5053872;28;20034;-68
2021/08/16 06:33:28;;;;;;;13.38;7.00;;;18.60;93.90;;;;;;5059253;28;20067;-67
2021/08/16 06:35:54;;;;;;;15.85;6.68;;;18.70;93.80;;;;;;5051217;28;20509;-67
2021/08/16 06:38:22;;;;;;;13.05;6.80;;;18.70;93.80;;;;;;5046649;28;20032;-70
2021/08/16 06:40:49;;;;;;;11.27;6.28;;;18.70;93.70;;;;;;5061258;28;20086;-69
2021/08/16 06:43:15;;;;;;;15.55;6.10;;;18.70;93.70;;;;;;5061922;28;20116;-67
2021/08/16 06:45:44;;;;;;;11.30;5.50;;;18.80;93.60;;;;;;5065039;28;20064;-67
2021/08/16 06:48:11;;;;;;;12.65;6.20;;;18.80;93.50;;;;;;5059073;28;20043;-66
2021/08/16 06:50:37;;;;;;;16.05;7.13;;;18.80;93.40;;;;;;5061635;28;20025;-67
2021/08/16 06:53:03;;;;;;;15.18;6.97;;;18.80;93.40;;;;;;5045339;28;20032;-67
2021/08/16 06:55:29;;;;;;;15.10;7.07;;;18.80;93.40;;;;;;5057289;28;20029;-67
2021/08/16 06:57:54;;;;;;;10.68;6.40;;;18.80;93.30;;;;;;5059652;28;20099;-66
2021/08/16 07:00:20;;;;;;;17.85;6.50;;;18.90;93.30;;;;;;5058702;28;20499;-67
2021/08/16 07:02:46;;;;;;;14.35;6.22;;;18.90;93.30;;;;;;5055490;28;20033;-66
2021/08/16 07:05:12;;;;;;;12.25;6.00;;;18.90;93.30;;;;;;5055791;28;20025;-66
2021/08/16 07:07:38;;;;;;;17.85;6.35;;;18.90;93.20;;;;;;5058561;28;20029;-66
2021/08/16 07:10:04;;;;;;;16.27;6.18;;;18.90;93.10;;;;;;5059598;28;20028;-67
2021/08/16 07:12:30;;;;;;;13.23;5.78;;;18.90;93.10;;;;;;5056920;28;20017;-68
2021/08/16 07:14:56;;;;;;;10.93;5.07;;;18.90;93.10;;;;;;5058287;28;20021;-67
2021/08/16 07:17:21;;;;;;;15.60;6.47;;;18.90;93.20;;;;;;5059892;28;20498;-67
2021/08/16 07:19:47;;;;;;;19.98;6.68;;;18.80;93.10;;;;;;5061075;28;20036;-67
2021/08/16 07:22:13;;;;;;;12.65;6.13;;;18.80;93.10;;;;;;5061126;28;20533;-67
2021/08/16 07:24:38;;;;;;;10.93;5.72;;;18.80;92.80;;;;;;5060103;28;20028;-67
2021/08/16 07:27:04;;;;;;;14.35;6.28;;;18.80;93.00;;;;;;5059270;28;20052;-67
2021/08/16 07:29:30;;;;;;;15.32;6.22;;;18.70;92.90;;;;;;5040280;28;20029;-66
2021/08/16 07:31:58;;;;;;;23.98;7.20;;;18.70;92.90;;;;;;5058147;28;20082;-68
2021/08/16 07:34:23;;;;;;;15.50;6.78;;;18.70;92.80;;;;;;5054928;28;20479;-67
2021/08/16 07:36:54;;;;;;;18.70;6.78;;;18.70;92.90;;;;;;5059757;28;20110;-67
2021/08/16 07:39:20;;;;;;;14.05;6.00;;;18.70;93.00;;;;;;5039926;28;20113;-67
2021/08/16 07:41:46;;;;;;;16.35;6.43;;;18.70;93.00;;;;;;5055897;28;20028;-67
2021/08/16 07:44:11;;;;;;;12.30;5.38;;;18.60;93.00;;;;;;5055236;28;20782;-68
2021/08/16 07:46:37;;;;;;;12.35;6.18;;;18.70;93.00;;;;;;5025009;28;20036;-67
2021/08/16 07:49:03;;;;;;;16.85;7.05;;;18.70;93.00;;;;;;5054858;28;20020;-67
2021/08/16 07:51:29;;;;;;;16.20;6.60;;;18.80;92.90;;;;;;5058839;28;20143;-67
2021/08/16 07:53:54;;;;;;;15.75;6.30;;;18.80;92.60;;;;;;5057485;28;20056;-67
2021/08/16 07:56:20;;;;;;;13.25;6.97;;;19.00;92.80;;;;;;5058031;28;20028;-67
2021/08/16 07:58:46;;;;;;;15.27;7.15;;;19.10;92.30;;;;;;5060456;28;20486;-67
2021/08/16 08:01:12;;;;;;;12.75;6.50;;;19.10;92.10;;;;;;5059154;28;20034;-67
2021/08/16 08:03:38;;;;;;;18.45;6.60;;;19.20;92.10;;;;;;5057103;28;20112;-67
2021/08/16 08:06:03;;;;;;;13.80;6.75;;;19.20;91.80;;;;;;5056187;28;20025;-67
2021/08/16 08:08:32;;;;;;;11.52;5.60;;;19.20;91.80;;;;;;5057680;28;20470;-67
2021/08/16 08:10:58;;;;;;;15.57;6.50;;;19.10;91.90;;;;;;5059086;28;20025;-67
2021/08/16 08:13:23;;;;;;;11.65;5.82;;;19.20;91.80;;;;;;5039222;28;20079;-67
2021/08/16 08:15:49;;;;;;;14.13;6.05;;;19.10;91.50;;;;;;5056269;28;20143;-67
2021/08/16 08:18:15;;;;;;;18.95;6.38;;;19.10;91.80;;;;;;5022398;28;20033;-67
2021/08/16 08:20:40;;;;;;;14.93;5.65;;;19.10;91.60;;;;;;5056405;28;20037;-67
2021/08/16 08:23:08;;;;;;;12.55;6.15;;;19.10;91.70;;;;;;5057882;28;20032;-66
2021/08/16 08:25:34;;;;;;;11.52;6.45;;;19.20;91.70;;;;;;5059133;28;20108;-67
2021/08/16 08:28:01;;;;;;;11.70;5.85;;;19.30;91.50;;;;;;5057459;28;20024;-67
2021/08/16 08:30:27;;;;;;;12.90;6.55;;;19.30;91.30;;;;;;5056875;28;20025;-67
2021/08/16 08:32:56;;;;;;;12.15;6.03;;;19.40;91.00;;;;;;5058483;28;20107;-67
2021/08/16 08:35:23;;;;;;;13.23;6.53;;;19.50;90.90;;;;;;5054990;28;20084;-67
2021/08/16 08:37:49;;;;;;;13.20;5.72;;;19.60;90.50;;;;;;5055629;28;20029;-67
2021/08/16 08:40:16;;;;;;;10.15;6.45;;;19.50;90.70;;;;;;5058620;28;20100;-66
2021/08/16 08:42:49;;;;;;;13.07;5.50;;;19.60;90.50;;;;;;5054793;28;20028;-67
2021/08/16 08:45:15;;;;;;;12.80;5.20;;;19.60;90.40;;;;;;5054192;28;20059;-68
2021/08/16 08:47:41;;;;;;;10.63;5.03;;;19.60;90.30;;;;;;5055008;28;20028;-68
2021/08/16 08:50:07;;;;;;;13.05;5.30;;;19.60;90.30;;;;;;5055927;28;20052;-67
2021/08/16 08:52:33;;;;;;;9.48;5.30;;;19.60;90.20;;;;;;5056752;28;20440;-67
2021/08/16 08:54:58;;;;;;;14.70;5.53;;;19.60;90.10;;;;;;5055632;28;20100;-67
2021/08/16 08:57:28;;;;;;;10.18;4.53;;;19.70;90.30;;;;;;5057592;28;20379;-68
2021/08/16 08:59:54;;;;;;;11.93;5.47;;;19.80;90.20;;;;;;5055587;28;20560;-68
2021/08/16 09:02:20;;;;;;;12.77;4.95;;;19.90;90.00;;;;;;5054971;28;20032;-67
2021/08/16 09:04:51;;;;;;;10.73;4.80;;;19.90;90.00;;;;;;5057081;28;20041;-67
2021/08/16 09:07:17;;;;;;;13.73;5.13;;;19.90;90.10;;;;;;5055440;28;20111;-68
2021/08/16 09:09:55;;;;;;;12.82;5.57;;;19.90;89.90;;;;;;5055407;28;20160;-67
2021/08/16 09:12:35;;;;;;;9.50;5.60;;;19.90;89.60;;;;;;5056794;28;20036;-67
2021/08/16 09:15:12;;;;;;;18.30;6.07;;;19.90;90.10;;;;;;5055501;28;20021;-67
2021/08/16 09:17:37;;;;;;;14.05;6.32;;;19.90;90.70;;;;;;5055868;28;20028;-68
2021/08/16 09:20:39;;;;;;;14.43;6.50;;;19.80;91.30;;;;;;5056420;28;20059;-67
2021/08/16 09:23:19;;;;;;;25.13;9.88;;;19.50;91.90;;;;;;5053200;28;20039;-69
2021/08/16 09:25:57;;;;;;;19.35;9.00;;;19.30;94.90;;;;;;5054258;28;20032;-68
2021/08/16 09:28:31;;;;;;;17.73;9.55;;;18.90;97.10;;;;;;5054833;28;20482;-68
2021/08/16 09:31:08;;;;;;;18.40;8.85;;;18.50;98.10;;;;;;5058400;28;20516;-68
2021/08/16 09:33:33;;;;;;;23.13;10.75;;;18.20;99.20;;;;;;5054238;28;20028;-67
2021/08/16 09:36:03;;;;;;;24.48;12.55;;;17.90;99.90;;;;;;5058700;28;20316;-67
2021/08/16 09:38:40;;;;;;;23.75;11.60;;;17.70;99.90;;;;;;5057762;28;20089;-68
2021/08/16 09:41:19;;;;;;;20.45;11.25;;;17.50;99.90;;;;;;5056523;28;20044;-68
2021/08/16 09:43:45;;;;;;;22.42;12.82;;;17.40;99.90;;;;;;5058526;28;20029;-69
2021/08/16 09:46:15;;;;;;;23.92;14.93;;;17.40;99.90;;;;;;5053383;28;20059;-68
2021/08/16 09:48:41;;;;;;;32.50;16.02;;;17.30;99.90;;;;;;5054453;28;20041;-68
2021/08/16 09:51:07;;;;;;;35.70;15.98;;;17.30;99.90;;;;;;5056329;28;20024;-68
2021/08/16 09:53:33;;;;;;;31.77;16.58;;;17.30;99.90;;;;;;5056025;28;20172;-67
2021/08/16 09:56:02;;;;;;;24.20;16.08;;;17.30;99.90;;;;;;5055386;28;20060;-67
2021/08/16 09:58:32;;;;;;;36.33;17.50;;;17.30;99.90;;;;;;5021505;28;20543;-68
2021/08/16 10:00:58;;;;;;;40.30;19.60;;;17.20;99.90;;;;;;5055663;28;20032;-68
2021/08/16 10:03:26;;;;;;;29.38;15.45;;;17.10;99.90;;;;;;5056031;28;20503;-69
2021/08/16 10:05:54;;;;;;;25.00;14.13;;;17.10;99.90;;;;;;5052046;28;20040;-68
2021/08/16 10:08:25;;;;;;;37.65;15.02;;;17.00;99.90;;;;;;5053120;28;20031;-69
2021/08/16 10:10:55;;;;;;;;;;;16.90;99.90;;;;;;5036603;28;20025;-68
2021/08/16 10:13:21;;;;;;;26.13;11.70;;;16.90;99.90;;;;;;5054100;28;19947;-70
2021/08/16 10:15:52;;;;;;;18.67;9.63;;;16.90;99.90;;;;;;5033033;28;20053;-69
2021/08/16 10:18:23;;;;;;;16.63;9.60;;;17.00;99.90;;;;;;5048413;28;20025;-71
2021/08/16 10:20:49;;;;;;;18.30;9.50;;;17.00;99.90;;;;;;5053402;28;20506;-67
2021/08/16 10:23:22;;;;;;;22.55;11.38;;;17.00;99.90;;;;;;5052622;28;20294;-66
2021/08/16 10:25:50;;;;;;;19.20;11.05;;;17.00;99.90;;;;;;5054902;28;20191;-66
2021/08/16 10:28:25;;;;;;;19.52;11.05;;;17.00;99.90;;;;;;5050904;28;20062;-66
2021/08/16 10:30:52;;;;;;;19.15;10.70;;;17.00;99.90;;;;;;5037768;28;20120;-66
2021/08/16 10:33:18;;;;;;;17.00;9.90;;;17.00;99.90;;;;;;5055678;28;20029;-66
2021/08/16 10:35:45;;;;;;;14.90;8.77;;;17.00;99.90;;;;;;5053068;28;20050;-66
2021/08/16 10:38:13;;;;;;;21.33;8.88;;;17.10;99.90;;;;;;5020399;28;20115;-67
2021/08/16 10:40:44;;;;;;;15.75;8.48;;;17.10;99.90;;;;;;5053605;28;20033;-67
2021/08/16 10:43:12;;;;;;;14.52;8.23;;;17.00;99.90;;;;;;5053428;28;20021;-67
2021/08/16 10:45:49;;;;;;;11.82;6.95;;;16.90;99.90;;;;;;5055668;28;20401;-67
2021/08/16 10:48:34;;;;;;;28.02;9.43;;;16.80;99.90;;;;;;5053027;28;20048;-66
2021/08/16 10:51:11;;;;;;;13.63;6.45;;;16.80;99.90;;;;;;5056147;28;20036;-66
2021/08/16 10:53:51;;;;;;;10.70;6.75;;;16.80;99.90;;;;;;5052308;28;20557;-66
2021/08/16 10:56:18;;;;;;;8.48;5.75;;;16.90;99.90;;;;;;5055797;28;20106;-66
2021/08/16 10:58:45;;;;;;;9.45;6.30;;;16.90;99.90;;;;;;5035660;28;20455;-66
2021/08/16 11:01:29;;;;;;;9.52;6.63;;;17.00;99.90;;;;;;5054576;28;20075;-66
2021/08/16 11:04:00;;;;;;;15.15;7.35;;;17.00;99.90;;;;;;5054786;28;20050;-66
2021/08/16 11:06:27;;;;;;;11.00;6.45;;;17.10;99.90;;;;;;5054571;28;20033;-66
2021/08/16 11:09:12;;;;;;;12.93;6.40;;;17.00;99.90;;;;;;5060149;28;20029;-66
2021/08/16 11:12:02;;;;;;;11.82;6.20;;;16.90;99.90;;;;;;5058292;28;20020;-67
2021/08/16 11:14:30;;;;;;;10.32;5.95;;;16.80;99.90;;;;;;5052735;28;20039;-66
2021/08/16 11:16:56;;;;;;;9.95;5.47;;;16.70;99.90;;;;;;5054614;28;20039;-66
2021/08/16 11:19:23;;;;;;;11.90;5.22;;;16.60;99.90;;;;;;5054196;28;20506;-66
2021/08/16 11:22:00;;;;;;;8.48;4.68;;;16.60;99.90;;;;;;5055909;28;20040;-67
2021/08/16 11:24:34;;;;;;;7.38;4.40;;;16.60;99.90;;;;;;5047776;28;20108;-66
2021/08/16 11:27:05;;;;;;;10.93;4.70;;;16.50;99.90;;;;;;5058373;28;20029;-66
2021/08/16 11:29:32;;;;;;;8.95;4.43;;;16.40;99.90;;;;;;5055949;28;20390;-67
2021/08/16 11:32:01;;;;;;;12.60;4.65;;;16.30;99.90;;;;;;5057559;28;20029;-66
2021/08/16 11:34:31;;;;;;;7.40;4.72;;;16.30;99.90;;;;;;5057878;28;20098;-66
2021/08/16 11:36:58;;;;;;;10.63;4.75;;;16.30;99.90;;;;;;5057209;28;20174;-66
2021/08/16 11:39:32;;;;;;;10.65;4.72;;;16.30;99.90;;;;;;5039303;28;20043;-66
2021/08/16 11:42:02;;;;;;;10.52;4.20;;;16.30;99.90;;;;;;5057520;28;20029;-66
2021/08/16 11:44:29;;;;;;;6.87;4.00;;;16.40;99.90;;;;;;5057231;28;20103;-65
2021/08/16 11:47:03;;;;;;;8.95;4.28;;;16.40;99.90;;;;;;5056345;28;20036;-65
2021/08/16 11:49:38;;;;;;;5.55;3.83;;;16.60;99.90;;;;;;5056769;28;20062;-66
2021/08/16 11:52:05;;;;;;;10.63;5.00;;;16.60;99.90;;;;;;5055628;28;20495;-66
2021/08/16 11:54:36;;;;;;;6.50;4.50;;;16.60;99.90;;;;;;5050675;28;20028;-66
2021/08/16 11:57:06;;;;;;;;;;;16.60;99.90;;;;;;5054292;28;20032;-65
2021/08/16 11:59:32;;;;;;;10.07;4.55;;;16.60;99.90;;;;;;5057887;28;20407;-66
2021/08/16 12:02:01;;;;;;;7.65;4.95;;;16.60;99.90;;;;;;5058324;28;20128;-67
2021/08/16 12:04:27;;;;;;;12.55;5.38;;;16.50;99.90;;;;;;5059189;28;20029;-66
2021/08/16 12:06:54;;;;;;;11.05;4.35;;;16.50;99.90;;;;;;5057926;28;20082;-67
2021/08/16 12:09:21;;;;;;;9.40;4.63;;;16.40;99.90;;;;;;5058886;28;20029;-66
2021/08/16 12:12:00;;;;;;;9.57;5.05;;;16.40;99.90;;;;;;5052894;28;20025;-66
2021/08/16 12:14:30;;;;;;;10.60;4.72;;;16.50;99.90;;;;;;5058045;28;20029;-67
2021/08/16 12:16:57;;;;;;;13.02;4.35;;;16.50;99.90;;;;;;5055332;28;20030;-67
2021/08/16 12:19:23;;;;;;;10.60;4.07;;;16.40;99.90;;;;;;5057128;28;20495;-68
2021/08/16 12:22:07;;;;;;;8.30;4.20;;;16.30;99.90;;;;;;5040817;28;20043;-68
2021/08/16 12:24:34;;;;;;;10.95;4.85;;;16.30;99.90;;;;;;5038684;28;20059;-67
2021/08/16 12:27:09;;;;;;;10.38;5.43;;;16.30;99.90;;;;;;5057410;28;20028;-68
2021/08/16 12:29:41;;;;;;;8.25;4.82;;;16.30;99.90;;;;;;5023869;28;20475;-68
2021/08/16 12:32:13;;;;;;;11.15;4.90;;;16.30;99.90;;;;;;5040388;28;20074;-68
2021/08/16 12:34:39;;;;;;;7.80;4.60;;;16.40;99.90;;;;;;5059682;28;20028;-67
2021/08/16 12:37:06;;;;;;;10.40;5.00;;;16.40;99.90;;;;;;5022041;28;20506;-67
2021/08/16 12:39:33;;;;;;;646.38;440.33;;;16.30;99.90;;;;;;5056595;28;20121;-68
2021/08/16 12:42:09;;;;;;;168.55;103.55;;;16.30;99.90;;;;;;5056421;28;20067;-67